sensor_id;sensor_type;location;lat;lon;timestamp;P1;durP1;ratioP1;P2;durP2;ratioP2
49340;SDS011;35209;51.050;13.678;2022-10-04T00:03:06;6.35;;;1.48;;
49340;SDS011;35209;51.050;13.678;2022-10-04T00:08:23;5.78;;;1.45;;
49340;SDS011;35209;51.050;13.678;2022-10-04T00:13:33;6.07;;;1.42;;
49340;SDS011;35209;51.050;13.678;2022-10-04T00:18:39;7.88;;;1.40;;
49340;SDS011;35209;51.050;13.678;2022-10-04T00:23:46;5.82;;;1.25;;
49340;SDS011;35209;51.050;13.678;2022-10-04T00:28:48;6.40;;;1.20;;
49340;SDS011;35209;51.050;13.678;2022-10-04T00:44:05;4.82;;;1.60;;
49340;SDS011;35209;51.050;13.678;2022-10-04T00:49:17;3.53;;;1.30;;
49340;SDS011;35209;51.050;13.678;2022-10-04T00:54:42;4.50;;;1.40;;
49340;SDS011;35209;51.050;13.678;2022-10-04T00:59:55;11.20;;;1.50;;
49340;SDS011;35209;51.050;13.678;2022-10-04T01:10:24;3.25;;;1.00;;
49340;SDS011;35209;51.050;13.678;2022-10-04T01:15:33;4.60;;;1.55;;
49340;SDS011;35209;51.050;13.678;2022-10-04T01:26:04;9.45;;;1.40;;
49340;SDS011;35209;51.050;13.678;2022-10-04T01:31:30;7.20;;;1.35;;
49340;SDS011;35209;51.050;13.678;2022-10-04T01:36:33;9.93;;;1.65;;
49340;SDS011;35209;51.050;13.678;2022-10-04T01:46:58;5.78;;;1.67;;
49340;SDS011;35209;51.050;13.678;2022-10-04T01:52:12;3.00;;;1.13;;
49340;SDS011;35209;51.050;13.678;2022-10-04T01:57:23;7.13;;;1.77;;
49340;SDS011;35209;51.050;13.678;2022-10-04T02:07:45;8.20;;;1.50;;
49340;SDS011;35209;51.050;13.678;2022-10-04T02:12:50;8.00;;;1.52;;
49340;SDS011;35209;51.050;13.678;2022-10-04T02:17:54;5.22;;;1.58;;
49340;SDS011;35209;51.050;13.678;2022-10-04T02:22:58;6.72;;;1.30;;
49340;SDS011;35209;51.050;13.678;2022-10-04T02:28:03;4.57;;;1.40;;
49340;SDS011;35209;51.050;13.678;2022-10-04T02:33:11;4.95;;;1.75;;
49340;SDS011;35209;51.050;13.678;2022-10-04T02:38:22;4.97;;;1.40;;
49340;SDS011;35209;51.050;13.678;2022-10-04T02:43:31;5.57;;;1.30;;
49340;SDS011;35209;51.050;13.678;2022-10-04T02:48:43;7.78;;;1.65;;
49340;SDS011;35209;51.050;13.678;2022-10-04T02:53:55;4.72;;;1.90;;
49340;SDS011;35209;51.050;13.678;2022-10-04T02:59:05;6.93;;;1.73;;
49340;SDS011;35209;51.050;13.678;2022-10-04T03:04:07;5.35;;;1.80;;
49340;SDS011;35209;51.050;13.678;2022-10-04T03:09:12;4.45;;;1.50;;
49340;SDS011;35209;51.050;13.678;2022-10-04T03:14:16;5.63;;;1.50;;
49340;SDS011;35209;51.050;13.678;2022-10-04T03:19:21;6.33;;;1.53;;
49340;SDS011;35209;51.050;13.678;2022-10-04T03:24:32;7.43;;;1.60;;
49340;SDS011;35209;51.050;13.678;2022-10-04T03:29:38;9.32;;;2.05;;
49340;SDS011;35209;51.050;13.678;2022-10-04T03:34:48;5.27;;;1.20;;
49340;SDS011;35209;51.050;13.678;2022-10-04T03:39:54;8.18;;;1.75;;
49340;SDS011;35209;51.050;13.678;2022-10-04T03:45:00;4.82;;;1.20;;
49340;SDS011;35209;51.050;13.678;2022-10-04T03:50:20;6.32;;;1.42;;
49340;SDS011;35209;51.050;13.678;2022-10-04T03:55:59;5.15;;;1.30;;
49340;SDS011;35209;51.050;13.678;2022-10-04T04:01:02;5.78;;;1.40;;
49340;SDS011;35209;51.050;13.678;2022-10-04T04:06:13;5.13;;;1.55;;
49340;SDS011;35209;51.050;13.678;2022-10-04T04:11:19;6.72;;;1.45;;
49340;SDS011;35209;51.050;13.678;2022-10-04T04:16:23;5.97;;;1.80;;
49340;SDS011;35209;51.050;13.678;2022-10-04T04:21:28;6.38;;;1.80;;
49340;SDS011;35209;51.050;13.678;2022-10-04T04:26:41;6.72;;;1.60;;
49340;SDS011;35209;51.050;13.678;2022-10-04T04:31:53;10.07;;;1.92;;
49340;SDS011;35209;51.050;13.678;2022-10-04T04:36:59;6.20;;;1.50;;
49340;SDS011;35209;51.050;13.678;2022-10-04T04:42:10;10.20;;;1.98;;
49340;SDS011;35209;51.050;13.678;2022-10-04T04:47:35;5.97;;;1.85;;
49340;SDS011;35209;51.050;13.678;2022-10-04T04:52:45;9.52;;;2.25;;
49340;SDS011;35209;51.050;13.678;2022-10-04T04:57:50;6.15;;;1.70;;
49340;SDS011;35209;51.050;13.678;2022-10-04T05:02:57;6.03;;;2.00;;
49340;SDS011;35209;51.050;13.678;2022-10-04T05:08:14;9.18;;;1.90;;
49340;SDS011;35209;51.050;13.678;2022-10-04T05:13:21;6.88;;;1.90;;
49340;SDS011;35209;51.050;13.678;2022-10-04T05:18:29;6.65;;;2.08;;
49340;SDS011;35209;51.050;13.678;2022-10-04T05:23:33;5.10;;;2.10;;
49340;SDS011;35209;51.050;13.678;2022-10-04T05:28:35;7.50;;;1.70;;
49340;SDS011;35209;51.050;13.678;2022-10-04T05:33:43;8.60;;;2.17;;
49340;SDS011;35209;51.050;13.678;2022-10-04T05:38:54;5.95;;;1.88;;
49340;SDS011;35209;51.050;13.678;2022-10-04T05:44:18;10.77;;;2.00;;
49340;SDS011;35209;51.050;13.678;2022-10-04T05:49:27;7.85;;;2.40;;
49340;SDS011;35209;51.050;13.678;2022-10-04T05:54:33;6.40;;;3.17;;
49340;SDS011;35209;51.050;13.678;2022-10-04T06:05:20;4.68;;;1.77;;
49340;SDS011;35209;51.050;13.678;2022-10-04T06:10:51;6.38;;;1.70;;
49340;SDS011;35209;51.050;13.678;2022-10-04T06:21:24;6.05;;;2.08;;
49340;SDS011;35209;51.050;13.678;2022-10-04T06:26:29;12.38;;;2.33;;
49340;SDS011;35209;51.050;13.678;2022-10-04T06:53:50;6.05;;;1.80;;
49340;SDS011;35209;51.050;13.678;2022-10-04T07:15:23;7.05;;;1.73;;
49340;SDS011;35209;51.050;13.678;2022-10-04T07:20:30;6.95;;;1.52;;
49340;SDS011;35209;51.050;13.678;2022-10-04T07:25:40;5.88;;;2.00;;
49340;SDS011;35209;51.050;13.678;2022-10-04T07:36:05;4.65;;;1.23;;
49340;SDS011;35209;51.050;13.678;2022-10-04T07:46:38;3.95;;;1.55;;
49340;SDS011;35209;51.050;13.678;2022-10-04T08:07:56;7.50;;;1.77;;
49340;SDS011;35209;51.050;13.678;2022-10-04T08:34:29;6.32;;;1.75;;
49340;SDS011;35209;51.050;13.678;2022-10-04T08:39:53;6.82;;;2.33;;
49340;SDS011;35209;51.050;13.678;2022-10-04T09:18:50;6.75;;;1.80;;
49340;SDS011;35209;51.050;13.678;2022-10-04T09:40:20;7.50;;;1.30;;
49340;SDS011;35209;51.050;13.678;2022-10-04T10:07:51;5.10;;;1.40;;
49340;SDS011;35209;51.050;13.678;2022-10-04T10:44:56;4.13;;;1.00;;
49340;SDS011;35209;51.050;13.678;2022-10-04T10:50:40;4.28;;;1.00;;
49340;SDS011;35209;51.050;13.678;2022-10-04T11:06:43;3.22;;;0.98;;
49340;SDS011;35209;51.050;13.678;2022-10-04T11:23:08;5.43;;;1.30;;
49340;SDS011;35209;51.050;13.678;2022-10-04T11:28:43;4.67;;;0.90;;
49340;SDS011;35209;51.050;13.678;2022-10-04T11:39:40;4.97;;;1.23;;
49340;SDS011;35209;51.050;13.678;2022-10-04T11:50:37;3.10;;;0.88;;
49340;SDS011;35209;51.050;13.678;2022-10-04T12:33:57;3.35;;;0.75;;
49340;SDS011;35209;51.050;13.678;2022-10-04T12:55:37;3.83;;;0.80;;
49340;SDS011;35209;51.050;13.678;2022-10-04T13:00:47;3.00;;;0.90;;
49340;SDS011;35209;51.050;13.678;2022-10-04T13:22:15;3.30;;;0.75;;
49340;SDS011;35209;51.050;13.678;2022-10-04T13:27:49;3.25;;;0.77;;
49340;SDS011;35209;51.050;13.678;2022-10-04T13:33:21;3.10;;;0.80;;
49340;SDS011;35209;51.050;13.678;2022-10-04T14:00:01;1.92;;;0.82;;
49340;SDS011;35209;51.050;13.678;2022-10-04T14:05:30;2.22;;;0.70;;
49340;SDS011;35209;51.050;13.678;2022-10-04T14:26:41;2.67;;;0.60;;
49340;SDS011;35209;51.050;13.678;2022-10-04T14:54:14;1.92;;;0.82;;
49340;SDS011;35209;51.050;13.678;2022-10-04T14:59:34;4.05;;;2.17;;
49340;SDS011;35209;51.050;13.678;2022-10-04T15:15:03;1.55;;;0.60;;
49340;SDS011;35209;51.050;13.678;2022-10-04T15:26:36;1.52;;;0.65;;
49340;SDS011;35209;51.050;13.678;2022-10-04T15:37:20;1.30;;;0.60;;
49340;SDS011;35209;51.050;13.678;2022-10-04T15:42:28;2.13;;;0.80;;
49340;SDS011;35209;51.050;13.678;2022-10-04T15:53:07;1.35;;;0.60;;
49340;SDS011;35209;51.050;13.678;2022-10-04T15:58:25;2.53;;;0.90;;
49340;SDS011;35209;51.050;13.678;2022-10-04T16:03:44;2.78;;;0.98;;
49340;SDS011;35209;51.050;13.678;2022-10-04T16:25:35;2.25;;;1.10;;
49340;SDS011;35209;51.050;13.678;2022-10-04T16:30:40;2.63;;;1.50;;
49340;SDS011;35209;51.050;13.678;2022-10-04T16:36:10;3.22;;;1.30;;
49340;SDS011;35209;51.050;13.678;2022-10-04T16:46:30;6.32;;;2.70;;
49340;SDS011;35209;51.050;13.678;2022-10-04T16:51:56;5.75;;;2.10;;
49340;SDS011;35209;51.050;13.678;2022-10-04T16:57:17;5.35;;;2.13;;
49340;SDS011;35209;51.050;13.678;2022-10-04T17:02:26;9.38;;;2.70;;
49340;SDS011;35209;51.050;13.678;2022-10-04T17:13:34;3.20;;;2.20;;
49340;SDS011;35209;51.050;13.678;2022-10-04T17:24:13;7.57;;;3.85;;
49340;SDS011;35209;51.050;13.678;2022-10-04T17:29:21;5.63;;;4.53;;
49340;SDS011;35209;51.050;13.678;2022-10-04T17:39:56;6.45;;;5.47;;
49340;SDS011;35209;51.050;13.678;2022-10-04T17:50:32;4.70;;;4.28;;
49340;SDS011;35209;51.050;13.678;2022-10-04T17:56:21;5.68;;;3.55;;
49340;SDS011;35209;51.050;13.678;2022-10-04T18:01:53;4.78;;;3.65;;
49340;SDS011;35209;51.050;13.678;2022-10-04T18:12:33;5.50;;;2.63;;
49340;SDS011;35209;51.050;13.678;2022-10-04T18:17:48;4.70;;;2.63;;
49340;SDS011;35209;51.050;13.678;2022-10-04T18:23:02;6.43;;;3.05;;
49340;SDS011;35209;51.050;13.678;2022-10-04T18:28:20;7.03;;;2.73;;
49340;SDS011;35209;51.050;13.678;2022-10-04T18:33:45;5.17;;;3.40;;
49340;SDS011;35209;51.050;13.678;2022-10-04T18:39:00;5.63;;;3.90;;
49340;SDS011;35209;51.050;13.678;2022-10-04T18:44:15;5.50;;;3.50;;
49340;SDS011;35209;51.050;13.678;2022-10-04T18:49:20;5.22;;;3.22;;
49340;SDS011;35209;51.050;13.678;2022-10-04T18:54:30;4.25;;;3.85;;
49340;SDS011;35209;51.050;13.678;2022-10-04T19:00:01;9.05;;;4.82;;
49340;SDS011;35209;51.050;13.678;2022-10-04T19:05:35;11.10;;;6.20;;
49340;SDS011;35209;51.050;13.678;2022-10-04T19:10:52;11.60;;;7.18;;
49340;SDS011;35209;51.050;13.678;2022-10-04T19:26:40;12.52;;;8.15;;
49340;SDS011;35209;51.050;13.678;2022-10-04T19:37:13;9.57;;;4.45;;
49340;SDS011;35209;51.050;13.678;2022-10-04T19:42:19;7.05;;;3.92;;
49340;SDS011;35209;51.050;13.678;2022-10-04T19:47:53;5.30;;;3.63;;
49340;SDS011;35209;51.050;13.678;2022-10-04T19:53:04;2.90;;;2.13;;
49340;SDS011;35209;51.050;13.678;2022-10-04T20:03:39;4.32;;;2.60;;
49340;SDS011;35209;51.050;13.678;2022-10-04T20:08:56;4.40;;;2.15;;
49340;SDS011;35209;51.050;13.678;2022-10-04T20:24:49;3.45;;;2.70;;
49340;SDS011;35209;51.050;13.678;2022-10-04T20:34:52;5.82;;;4.35;;
49340;SDS011;35209;51.050;13.678;2022-10-04T20:39:55;5.05;;;3.72;;
49340;SDS011;35209;51.050;13.678;2022-10-04T20:50:15;4.28;;;3.00;;
49340;SDS011;35209;51.050;13.678;2022-10-04T20:55:21;4.30;;;3.05;;
49340;SDS011;35209;51.050;13.678;2022-10-04T21:00:28;4.70;;;3.38;;
49340;SDS011;35209;51.050;13.678;2022-10-04T21:05:34;3.70;;;2.80;;
49340;SDS011;35209;51.050;13.678;2022-10-04T21:10:36;3.42;;;2.70;;
49340;SDS011;35209;51.050;13.678;2022-10-04T21:15:38;3.83;;;2.72;;
49340;SDS011;35209;51.050;13.678;2022-10-04T21:20:55;5.78;;;2.95;;
49340;SDS011;35209;51.050;13.678;2022-10-04T21:31:19;5.63;;;3.30;;
49340;SDS011;35209;51.050;13.678;2022-10-04T21:36:20;4.03;;;3.03;;
49340;SDS011;35209;51.050;13.678;2022-10-04T21:41:22;4.53;;;3.60;;
49340;SDS011;35209;51.050;13.678;2022-10-04T21:46:23;4.88;;;3.40;;
49340;SDS011;35209;51.050;13.678;2022-10-04T21:51:25;7.30;;;3.45;;
49340;SDS011;35209;51.050;13.678;2022-10-04T21:56:27;4.75;;;3.33;;
49340;SDS011;35209;51.050;13.678;2022-10-04T22:01:28;4.03;;;3.67;;
49340;SDS011;35209;51.050;13.678;2022-10-04T22:06:30;8.15;;;3.83;;
49340;SDS011;35209;51.050;13.678;2022-10-04T22:11:32;5.47;;;3.88;;
49340;SDS011;35209;51.050;13.678;2022-10-04T22:16:33;5.28;;;3.70;;
49340;SDS011;35209;51.050;13.678;2022-10-04T22:21:35;5.22;;;4.60;;
49340;SDS011;35209;51.050;13.678;2022-10-04T22:26:36;8.30;;;4.80;;
49340;SDS011;35209;51.050;13.678;2022-10-04T22:31:38;5.13;;;4.45;;
49340;SDS011;35209;51.050;13.678;2022-10-04T22:36:44;7.30;;;4.60;;
49340;SDS011;35209;51.050;13.678;2022-10-04T22:41:55;7.72;;;4.90;;
49340;SDS011;35209;51.050;13.678;2022-10-04T22:47:00;11.27;;;6.38;;
49340;SDS011;35209;51.050;13.678;2022-10-04T22:52:04;9.07;;;5.45;;
49340;SDS011;35209;51.050;13.678;2022-10-04T22:57:12;5.60;;;5.10;;
49340;SDS011;35209;51.050;13.678;2022-10-04T23:02:19;5.25;;;4.10;;
49340;SDS011;35209;51.050;13.678;2022-10-04T23:07:28;8.25;;;4.50;;
49340;SDS011;35209;51.050;13.678;2022-10-04T23:12:35;5.43;;;4.50;;
49340;SDS011;35209;51.050;13.678;2022-10-04T23:17:37;5.32;;;3.42;;
49340;SDS011;35209;51.050;13.678;2022-10-04T23:22:41;4.65;;;3.50;;
49340;SDS011;35209;51.050;13.678;2022-10-04T23:27:45;7.50;;;4.40;;
49340;SDS011;35209;51.050;13.678;2022-10-04T23:32:49;8.05;;;3.72;;
49340;SDS011;35209;51.050;13.678;2022-10-04T23:37:53;4.15;;;3.83;;
49340;SDS011;35209;51.050;13.678;2022-10-04T23:42:55;8.52;;;4.90;;
49340;SDS011;35209;51.050;13.678;2022-10-04T23:47:58;5.78;;;4.15;;
49340;SDS011;35209;51.050;13.678;2022-10-04T23:53:02;7.75;;;4.45;;
49340;SDS011;35209;51.050;13.678;2022-10-04T23:58:13;9.48;;;3.72;;
